Weather at Toronto (St. Michael's Hospital) Heliport

Public forecast

Using degrees Celsius for public forecast. Weather courtesy of forecast.io.

Closest aviation weather report (METAR) to Toronto (St. Michael's Hospital) Heliport

Closest report is Billy Bishop Toronto City Centre Airport, 1.8 nm (3.3 km) SSW.

2024/05/22 20:00 (retrieved 29 minutes ago)

CYTZ 222000Z AUTO 19012G17KT 9SM FEW066 SCT077 BKN091 BKN110 20/16 A2972 RMK SLP066 DENSITY ALT 1200FT

Closest aviation forecast (TAF) to Toronto (St. Michael's Hospital) Heliport

Closest forecast is Billy Bishop Toronto City Centre Airport, 1.8 nm (3.3 km) SSW.

2024/05/22 20:52 (retrieved 0 seconds ago)

TAF CYTZ 221940Z 2220/2320 22015G25KT P6SM SCT050 BKN240 FM230100 24015G25KT P6SM SCT040 FM230400 29015G25KT P6SM SCT040 BKN130 FM230800 27010KT P6SM SKC BECMG 2314/2316 20010G20KT RMK FCST BASED ON AUTO OBS NXT FCST BY 230200Z